Time;durP1;ratioP1;P1;durP2;ratioP2;P2;SDS_P1;SDS_P2;PMS_P1;PMS_P2;Temp;Humidity;BMP_temperature;BMP_pressure;BME280_temperature;BME280_humidity;BME280_pressure;Samples;Min_cycle;Max_cycle;Signal;HPM_P1;HPM_P2
2023/01/01 00:02:09;;;;;;;53.78;35.10;;;;;;;;;;4986314;28;20168;-85
2023/01/01 00:04:35;;;;;;;58.30;32.65;;;;;;;;;;4969755;28;20522;-87
2023/01/01 00:07:01;;;;;;;56.30;33.38;;;;;;;;;;4998142;28;20034;-85
2023/01/01 00:12:12;;;;;;;46.63;28.65;;;;;;;;;;4984895;28;20034;-84
2023/01/01 00:14:41;;;;;;;55.47;28.88;;;;;;;;;;4989467;28;20033;-81
2023/01/01 00:17:07;;;;;;;52.80;28.67;;;;;;;;;;4987266;28;20529;-84
2023/01/01 00:19:33;;;;;;;53.28;25.38;;;;;;;;;;4985896;28;20030;-84
2023/01/01 00:22:00;;;;;;;44.20;24.92;;;;;;;;;;4999858;28;20053;-81
2023/01/01 00:24:26;;;;;;;56.00;24.17;;;;;;;;;;4980785;28;20027;-81
2023/01/01 00:26:52;;;;;;;43.70;24.33;;;;;;;;;;4986158;28;21201;-82
2023/01/01 00:29:18;;;;;;;36.50;20.33;;;;;;;;;;4990665;28;20018;-82
2023/01/01 00:31:45;;;;;;;47.72;22.48;;;;;;;;;;4978595;28;20045;-82
2023/01/01 00:34:11;;;;;;;50.28;20.70;;;;;;;;;;4991805;28;20038;-81
2023/01/01 00:36:37;;;;;;;37.50;19.38;;;;;;;;;;4999849;28;20041;-84
2023/01/01 00:39:04;;;;;;;35.80;19.50;;;;;;;;;;5004569;28;20072;-84
2023/01/01 00:41:30;;;;;;;39.30;20.70;;;;;;;;;;5000389;28;20034;-82
2023/01/01 00:43:56;;;;;;;41.75;19.50;;;;;;;;;;4993251;28;20038;-84
2023/01/01 00:46:22;;;;;;;34.95;18.08;;;;;;;;;;5003516;28;20022;-83
2023/01/01 00:48:48;;;;;;;29.92;16.35;;;;;;;;;;4972920;28;20038;-83
2023/01/01 00:51:14;;;;;;;36.40;17.52;;;;;;;;;;5005382;28;20081;-84
2023/01/01 00:53:40;;;;;;;34.33;16.15;;;;;;;;;;5004983;28;20466;-82
2023/01/01 00:56:07;;;;;;;30.40;15.68;;;;;;;;;;4999270;28;20029;-83
2023/01/01 00:58:33;;;;;;;27.05;12.40;;;;;;;;;;5009405;28;20046;-82
2023/01/01 01:00:59;;;;;;;36.25;13.25;;;;;;;;;;4993399;28;20030;-83
2023/01/01 01:03:28;;;;;;;36.00;11.52;;;;;;;;;;4993206;28;20072;-82
2023/01/01 01:05:55;;;;;;;29.38;10.85;;;;;;;;;;4960951;28;20122;-84
2023/01/01 01:08:21;;;;;;;29.90;10.65;;;;;;;;;;4990605;28;20034;-86
2023/01/01 01:10:47;;;;;;;27.65;9.82;;;;;;;;;;4988366;28;20034;-84
2023/01/01 01:13:14;;;;;;;28.17;9.15;;;;;;;;;;4985152;28;20034;-85
2023/01/01 01:15:40;;;;;;;25.83;12.80;;;;;;;;;;4984613;28;20036;-86
2023/01/01 01:18:06;;;;;;;31.17;8.80;;;;;;;;;;4975473;28;20054;-83
2023/01/01 01:20:32;;;;;;;18.40;7.75;;;;;;;;;;4987141;28;20030;-85
2023/01/01 01:22:58;;;;;;;19.73;7.50;;;;;;;;;;4983733;28;20030;-83
2023/01/01 01:25:25;;;;;;;17.45;7.18;;;;;;;;;;4981974;28;20054;-84
2023/01/01 01:27:51;;;;;;;30.10;7.70;;;;;;;;;;4989006;28;20189;-84
2023/01/01 01:30:17;;;;;;;16.95;6.65;;;;;;;;;;4984567;28;20089;-82
2023/01/01 01:32:44;;;;;;;20.20;7.40;;;;;;;;;;4984510;28;20147;-82
2023/01/01 01:35:10;;;;;;;22.25;6.53;;;;;;;;;;4983715;28;20946;-83
2023/01/01 01:37:36;;;;;;;19.83;6.22;;;;;;;;;;4996228;28;20035;-80
2023/01/01 01:40:02;;;;;;;19.67;5.40;;;;;;;;;;4985501;28;20035;-84
2023/01/01 01:42:28;;;;;;;20.05;5.55;;;;;;;;;;4985397;28;20046;-82
2023/01/01 01:44:56;;;;;;;21.13;5.28;;;;;;;;;;4986317;28;20023;-83
2023/01/01 01:47:26;;;;;;;19.35;6.18;;;;;;;;;;4983567;28;20066;-83
2023/01/01 01:49:54;;;;;;;17.85;5.53;;;;;;;;;;4994795;28;20050;-82
2023/01/01 01:52:21;;;;;;;20.98;6.10;;;;;;;;;;4986148;28;20170;-86
2023/01/01 01:54:47;;;;;;;23.38;5.95;;;;;;;;;;4989304;28;20042;-82
2023/01/01 01:57:13;;;;;;;18.10;6.15;;;;;;;;;;4989717;28;20088;-85
2023/01/01 01:59:42;;;;;;;20.52;5.30;;;;;;;;;;4993289;28;20097;-83
2023/01/01 02:02:12;;;;;;;14.48;4.50;;;;;;;;;;4992758;28;20030;-82
2023/01/01 02:04:38;;;;;;;14.17;5.10;;;;;;;;;;4993688;28;20038;-83
2023/01/01 02:07:04;;;;;;;14.13;4.20;;;;;;;;;;4998683;28;20030;-80
2023/01/01 02:09:30;;;;;;;16.27;5.00;;;;;;;;;;4990175;28;20026;-81
2023/01/01 02:11:58;;;;;;;17.35;4.90;;;;;;;;;;5008604;28;20023;-84
2023/01/01 02:14:25;;;;;;;13.38;4.50;;;;;;;;;;5002385;28;20056;-84
2023/01/01 02:17:01;;;;;;;12.93;3.95;;;;;;;;;;5004940;28;20026;-83
2023/01/01 02:19:27;;;;;;;18.30;4.45;;;;;;;;;;4992171;28;20011;-84
2023/01/01 02:21:57;;;;;;;13.82;4.28;;;;;;;;;;5000520;28;20041;-81
2023/01/01 02:24:42;;;;;;;12.90;4.25;;;;;;;;;;4996693;28;20026;-84
2023/01/01 02:27:08;;;;;;;16.45;3.95;;;;;;;;;;4993763;28;20019;-86
2023/01/01 02:29:39;;;;;;;14.80;3.60;;;;;;;;;;4992630;28;20515;-83
2023/01/01 02:32:05;;;;;;;13.13;3.72;;;;;;;;;;4990432;28;20038;-85
2023/01/01 02:34:34;;;;;;;19.55;4.07;;;;;;;;;;4985143;28;20036;-84
2023/01/01 02:37:01;;;;;;;16.40;3.78;;;;;;;;;;4990136;28;20406;-82
2023/01/01 02:39:34;;;;;;;15.57;3.95;;;;;;;;;;4988087;28;20535;-82
2023/01/01 02:42:00;;;;;;;15.45;3.30;;;;;;;;;;4994572;28;20052;-82
2023/01/01 02:44:28;;;;;;;11.93;3.47;;;;;;;;;;4991244;28;20023;-83
2023/01/01 02:46:54;;;;;;;14.20;3.75;;;;;;;;;;4989498;28;20046;-85
2023/01/01 02:49:20;;;;;;;15.57;3.08;;;;;;;;;;4985274;28;20046;-83
2023/01/01 02:52:25;;;;;;;16.08;4.00;;;;;;;;;;4984733;28;20026;-83
2023/01/01 02:54:57;;;;;;;16.70;3.50;;;;;;;;;;4913420;29;20059;-83
2023/01/01 02:57:23;;;;;;;17.65;3.25;;;;;;;;;;4941822;28;20028;-85
2023/01/01 03:02:52;;;;;;;12.98;3.33;;;;;;;;;;4984888;28;20022;-83
2023/01/01 03:05:27;;;;;;;13.50;3.75;;;;;;;;;;4986998;28;20114;-83
2023/01/01 03:07:59;;;;;;;17.23;3.00;;;;;;;;;;4988381;28;20030;-82
2023/01/01 03:10:58;;;;;;;13.68;3.55;;;;;;;;;;4988744;28;20027;-83
2023/01/01 03:13:24;;;;;;;19.25;3.55;;;;;;;;;;4970454;28;20286;-84
2023/01/01 03:15:56;;;;;;;15.35;3.53;;;;;;;;;;4993339;28;20140;-83
2023/01/01 03:18:45;;;;;;;13.18;3.10;;;;;;;;;;4991604;28;20092;-85
2023/01/01 03:21:13;;;;;;;11.70;3.03;;;;;;;;;;4987061;28;20531;-83
2023/01/01 03:23:45;;;;;;;11.32;2.97;;;;;;;;;;4999226;28;20015;-81
2023/01/01 03:26:13;;;;;;;11.07;2.90;;;;;;;;;;5003850;28;20045;-83
2023/01/01 03:28:42;;;;;;;20.52;3.38;;;;;;;;;;5004322;28;20038;-82
2023/01/01 03:31:09;;;;;;;12.07;3.05;;;;;;;;;;5000414;28;20050;-83
2023/01/01 03:33:40;;;;;;;20.33;3.80;;;;;;;;;;5005791;28;20041;-84
2023/01/01 03:36:09;;;;;;;11.73;3.78;;;;;;;;;;4986312;28;20050;-84
2023/01/01 03:38:35;;;;;;;16.40;3.65;;;;;;;;;;4997605;28;20038;-82
2023/01/01 03:41:04;;;;;;;17.50;2.95;;;;;;;;;;5017533;28;20014;-84
2023/01/01 03:43:48;;;;;;;9.10;2.90;;;;;;;;;;4993325;28;20034;-82
2023/01/01 03:46:15;;;;;;;10.93;2.50;;;;;;;;;;4989809;28;20522;-81
2023/01/01 03:48:56;;;;;;;11.00;3.22;;;;;;;;;;4986907;28;20051;-85
2023/01/01 03:51:22;;;;;;;;;;;;;;;;;;4971037;28;20129;-85
2023/01/01 03:53:51;;;;;;;13.18;3.70;;;;;;;;;;4982351;28;20013;-84
2023/01/01 03:56:18;;;;;;;10.27;2.88;;;;;;;;;;5005179;28;20030;-85
2023/01/01 03:59:03;;;;;;;15.63;3.15;;;;;;;;;;4987151;28;20030;-83
2023/01/01 04:01:35;;;;;;;12.50;3.40;;;;;;;;;;4986187;28;20313;-83
2023/01/01 04:04:03;;;;;;;12.38;2.30;;;;;;;;;;4981920;28;20034;-81
2023/01/01 04:06:29;;;;;;;9.30;2.20;;;;;;;;;;4987712;28;20086;-81
2023/01/01 04:08:58;;;;;;;12.80;2.75;;;;;;;;;;4976328;28;20046;-82
2023/01/01 04:14:12;;;;;;;16.23;3.10;;;;;;;;;;4993991;28;20120;-82
2023/01/01 04:16:38;;;;;;;8.93;2.70;;;;;;;;;;4974021;28;20157;-83
2023/01/01 04:19:07;;;;;;;12.73;2.90;;;;;;;;;;4991030;28;20061;-82
2023/01/01 04:21:34;;;;;;;11.02;2.83;;;;;;;;;;4987171;28;20034;-83
2023/01/01 04:24:00;;;;;;;9.43;3.10;;;;;;;;;;4987758;28;20092;-85
2023/01/01 04:26:26;;;;;;;9.95;3.17;;;;;;;;;;4991496;28;20027;-85
2023/01/01 04:28:52;;;;;;;12.10;2.50;;;;;;;;;;4998308;28;20103;-83
2023/01/01 04:31:18;;;;;;;12.15;2.17;;;;;;;;;;4996762;28;20169;-83
2023/01/01 04:33:44;;;;;;;15.15;2.72;;;;;;;;;;4999972;28;20513;-81
2023/01/01 04:36:10;;;;;;;10.48;2.88;;;;;;;;;;5014827;28;20411;-81
2023/01/01 04:38:37;;;;;;;8.98;2.90;;;;;;;;;;4987778;28;20027;-85
2023/01/01 04:41:22;;;;;;;11.98;3.00;;;;;;;;;;5014363;28;20094;-85
2023/01/01 04:43:49;;;;;;;12.55;3.00;;;;;;;;;;5009702;28;20087;-83
2023/01/01 04:46:16;;;;;;;12.07;3.00;;;;;;;;;;4990903;28;20049;-82
2023/01/01 04:48:42;;;;;;;10.50;2.90;;;;;;;;;;5005970;28;20064;-83
2023/01/01 04:51:09;;;;;;;20.05;4.13;;;;;;;;;;5000120;28;20538;-81
2023/01/01 04:53:35;;;;;;;12.32;3.25;;;;;;;;;;5001132;28;20026;-82
2023/01/01 04:56:07;;;;;;;16.38;3.67;;;;;;;;;;4995099;28;20041;-85
2023/01/01 04:58:34;;;;;;;10.98;3.28;;;;;;;;;;4991970;28;20030;-83
2023/01/01 05:01:01;;;;;;;18.63;3.58;;;;;;;;;;4985966;28;20033;-85
2023/01/01 05:03:28;;;;;;;12.50;3.22;;;;;;;;;;4991810;28;20030;-83
2023/01/01 05:06:04;;;;;;;13.05;2.97;;;;;;;;;;4989684;28;20296;-86
2023/01/01 05:08:31;;;;;;;20.80;4.55;;;;;;;;;;4992552;28;20038;-84
2023/01/01 05:11:05;;;;;;;13.43;3.00;;;;;;;;;;4986503;28;20116;-86
2023/01/01 05:13:36;;;;;;;14.43;3.33;;;;;;;;;;4994927;28;20368;-80
2023/01/01 05:16:03;;;;;;;12.75;3.63;;;;;;;;;;4990320;28;20611;-84
2023/01/01 05:18:30;;;;;;;19.38;3.10;;;;;;;;;;4994435;28;20117;-83
2023/01/01 05:21:00;;;;;;;14.23;3.42;;;;;;;;;;4993154;28;20049;-83
2023/01/01 05:23:27;;;;;;;14.27;3.90;;;;;;;;;;4989610;28;20022;-84
2023/01/01 05:25:53;;;;;;;13.55;2.80;;;;;;;;;;4989527;28;20030;-85
2023/01/01 05:28:19;;;;;;;13.27;2.90;;;;;;;;;;5003354;28;20438;-82
2023/01/01 05:30:45;;;;;;;14.80;2.65;;;;;;;;;;5000751;28;20041;-80
2023/01/01 05:33:12;;;;;;;10.77;2.45;;;;;;;;;;5005108;28;20057;-81
2023/01/01 05:35:38;;;;;;;9.50;3.05;;;;;;;;;;5003073;28;20038;-83
2023/01/01 05:38:04;;;;;;;13.45;2.47;;;;;;;;;;5004516;28;20061;-83
2023/01/01 05:40:34;;;;;;;10.13;2.22;;;;;;;;;;5001488;28;20015;-82
2023/01/01 05:43:00;;;;;;;10.95;2.10;;;;;;;;;;5021855;28;20030;-83
2023/01/01 05:45:26;;;;;;;12.35;2.10;;;;;;;;;;5016242;28;20034;-81
2023/01/01 05:47:52;;;;;;;9.50;2.13;;;;;;;;;;5016827;28;20183;-83
2023/01/01 05:50:18;;;;;;;16.20;2.65;;;;;;;;;;5016093;28;20059;-82
2023/01/01 05:52:44;;;;;;;9.18;2.10;;;;;;;;;;5007336;28;20053;-82
2023/01/01 05:55:11;;;;;;;9.02;2.72;;;;;;;;;;5009526;28;20066;-83
2023/01/01 05:57:37;;;;;;;18.08;2.40;;;;;;;;;;5011319;28;20035;-82
2023/01/01 06:00:04;;;;;;;9.35;2.00;;;;;;;;;;5016649;28;20448;-83
2023/01/01 06:02:32;;;;;;;11.60;2.13;;;;;;;;;;5008655;28;20057;-83
2023/01/01 06:04:59;;;;;;;17.95;3.10;;;;;;;;;;5000427;28;20027;-84
2023/01/01 06:07:25;;;;;;;9.90;2.33;;;;;;;;;;4993179;28;20392;-82
2023/01/01 06:09:51;;;;;;;13.93;2.28;;;;;;;;;;4993992;28;20092;-85
2023/01/01 06:12:17;;;;;;;14.85;2.40;;;;;;;;;;4973598;28;20038;-83
2023/01/01 06:14:43;;;;;;;8.68;2.05;;;;;;;;;;5003486;28;20037;-82
2023/01/01 06:17:10;;;;;;;11.15;1.80;;;;;;;;;;4993849;28;20048;-82
2023/01/01 06:19:36;;;;;;;15.02;1.88;;;;;;;;;;4990501;28;20023;-84
2023/01/01 06:22:03;;;;;;;21.65;2.70;;;;;;;;;;4987956;28;20043;-81
2023/01/01 06:24:29;;;;;;;12.18;2.35;;;;;;;;;;4983825;28;20039;-84
2023/01/01 06:26:55;;;;;;;8.80;2.17;;;;;;;;;;4991857;28;20033;-82
2023/01/01 06:29:21;;;;;;;9.45;2.33;;;;;;;;;;4992500;28;20026;-80
2023/01/01 06:31:47;;;;;;;10.10;1.67;;;;;;;;;;4994052;28;20034;-83
2023/01/01 06:34:13;;;;;;;12.68;2.63;;;;;;;;;;4973455;28;20448;-81
2023/01/01 06:36:39;;;;;;;8.07;2.10;;;;;;;;;;4975602;28;20056;-83
2023/01/01 06:39:06;;;;;;;11.55;2.08;;;;;;;;;;4991689;28;20468;-84
2023/01/01 06:41:35;;;;;;;8.30;1.67;;;;;;;;;;4973275;28;20031;-83
2023/01/01 06:44:01;;;;;;;9.48;1.90;;;;;;;;;;4991725;28;20021;-85
2023/01/01 06:46:29;;;;;;;11.65;1.70;;;;;;;;;;4998344;28;20089;-82
2023/01/01 06:48:57;;;;;;;9.25;1.77;;;;;;;;;;5001957;28;20050;-81
2023/01/01 06:51:27;;;;;;;9.30;2.08;;;;;;;;;;5012638;28;20030;-84
2023/01/01 06:53:54;;;;;;;8.93;1.80;;;;;;;;;;5009247;28;20034;-82
2023/01/01 06:56:20;;;;;;;7.53;2.10;;;;;;;;;;5009574;28;20030;-82
2023/01/01 06:58:47;;;;;;;10.00;2.33;;;;;;;;;;5009748;28;20015;-83
2023/01/01 07:01:17;;;;;;;13.82;2.25;;;;;;;;;;5005451;28;20031;-84
2023/01/01 07:03:44;;;;;;;10.88;1.83;;;;;;;;;;5004864;28;20035;-82
2023/01/01 07:06:10;;;;;;;9.10;1.70;;;;;;;;;;5004047;28;20153;-82
2023/01/01 07:08:37;;;;;;;7.55;1.58;;;;;;;;;;4984917;28;20026;-85
2023/01/01 07:11:04;;;;;;;10.75;2.15;;;;;;;;;;4997185;28;20022;-80
2023/01/01 07:13:30;;;;;;;12.20;2.40;;;;;;;;;;4980318;28;20034;-82
2023/01/01 07:15:57;;;;;;;15.13;1.90;;;;;;;;;;5003797;28;20103;-82
2023/01/01 07:18:24;;;;;;;10.23;2.08;;;;;;;;;;4999457;28;20159;-84
2023/01/01 07:21:14;;;;;;;13.50;2.15;;;;;;;;;;5000658;28;20058;-80
2023/01/01 07:23:40;;;;;;;14.02;1.55;;;;;;;;;;4994106;28;20030;-80
2023/01/01 07:26:06;;;;;;;10.07;1.88;;;;;;;;;;4986014;28;20496;-84
2023/01/01 07:28:32;;;;;;;11.95;2.55;;;;;;;;;;4984959;28;20029;-82
2023/01/01 07:30:58;;;;;;;6.35;1.70;;;;;;;;;;4976866;28;20031;-82
2023/01/01 07:33:25;;;;;;;7.95;2.05;;;;;;;;;;4994110;28;20031;-82
2023/01/01 07:35:51;;;;;;;12.45;2.28;;;;;;;;;;5010362;28;20107;-82
2023/01/01 07:38:17;;;;;;;12.57;2.35;;;;;;;;;;4991980;28;20100;-84
2023/01/01 07:40:43;;;;;;;11.32;2.03;;;;;;;;;;4995788;28;20073;-83
2023/01/01 07:43:11;;;;;;;11.45;1.70;;;;;;;;;;4987337;28;20042;-84
2023/01/01 07:45:37;;;;;;;17.55;2.50;;;;;;;;;;4994920;28;20056;-83
2023/01/01 07:48:05;;;;;;;14.13;1.88;;;;;;;;;;4994974;28;20030;-83
2023/01/01 07:50:32;;;;;;;9.32;3.13;;;;;;;;;;4990560;28;20018;-86
2023/01/01 07:52:59;;;;;;;11.27;2.30;;;;;;;;;;4989488;28;20038;-83
2023/01/01 07:55:25;;;;;;;15.60;2.47;;;;;;;;;;4987296;28;20019;-80
2023/01/01 07:57:51;;;;;;;12.20;2.08;;;;;;;;;;4995271;28;20034;-83
2023/01/01 08:00:19;;;;;;;19.13;2.78;;;;;;;;;;4979916;28;20082;-82
2023/01/01 08:02:45;;;;;;;11.13;1.92;;;;;;;;;;4999156;28;20023;-85
2023/01/01 08:05:11;;;;;;;11.57;1.92;;;;;;;;;;4988560;28;20034;-81
2023/01/01 08:07:37;;;;;;;11.75;1.52;;;;;;;;;;4999464;28;20041;-84
2023/01/01 08:10:04;;;;;;;19.23;3.20;;;;;;;;;;4991836;28;20030;-81
2023/01/01 08:12:30;;;;;;;14.90;2.13;;;;;;;;;;4987993;28;20037;-83
2023/01/01 08:14:57;;;;;;;11.75;1.90;;;;;;;;;;4988080;28;20125;-84
2023/01/01 08:17:23;;;;;;;11.77;2.22;;;;;;;;;;4991162;28;20030;-83
2023/01/01 08:19:50;;;;;;;12.93;2.08;;;;;;;;;;4992744;28;20040;-84
2023/01/01 08:22:18;;;;;;;13.02;2.05;;;;;;;;;;4977234;28;20030;-81
2023/01/01 08:24:44;;;;;;;13.20;1.88;;;;;;;;;;4992473;28;20401;-79
2023/01/01 08:27:14;;;;;;;8.98;2.00;;;;;;;;;;4988654;28;20107;-83
2023/01/01 08:29:41;;;;;;;12.50;2.25;;;;;;;;;;4992493;28;20037;-81
2023/01/01 08:32:07;;;;;;;14.02;2.03;;;;;;;;;;4996532;28;20022;-81
2023/01/01 08:34:33;;;;;;;10.50;2.58;;;;;;;;;;4982632;28;20034;-80
2023/01/01 08:36:59;;;;;;;14.98;2.50;;;;;;;;;;4972689;28;20546;-79
2023/01/01 08:39:25;;;;;;;16.15;2.65;;;;;;;;;;4972400;28;20034;-81
2023/01/01 08:41:52;;;;;;;8.18;2.22;;;;;;;;;;4989792;28;20038;-80
2023/01/01 08:44:18;;;;;;;15.23;2.65;;;;;;;;;;4987660;28;20038;-81
2023/01/01 08:46:44;;;;;;;14.65;2.22;;;;;;;;;;4992829;28;20049;-81
2023/01/01 08:49:11;;;;;;;14.55;2.22;;;;;;;;;;5002968;28;20056;-79
2023/01/01 08:51:37;;;;;;;18.90;2.38;;;;;;;;;;4992244;28;20046;-80
2023/01/01 08:54:03;;;;;;;14.07;2.95;;;;;;;;;;5009094;28;20088;-79
2023/01/01 08:56:48;;;;;;;21.20;2.38;;;;;;;;;;4995351;28;20033;-80
2023/01/01 08:59:15;;;;;;;9.95;1.88;;;;;;;;;;4992226;28;20089;-82
2023/01/01 09:01:41;;;;;;;12.32;2.28;;;;;;;;;;4992646;28;20031;-82
2023/01/01 09:04:11;;;;;;;10.23;2.15;;;;;;;;;;4998569;28;20159;-81
2023/01/01 09:06:37;;;;;;;10.43;2.57;;;;;;;;;;5008966;28;20073;-82
2023/01/01 09:09:03;;;;;;;18.42;2.53;;;;;;;;;;4990633;28;20308;-82
2023/01/01 09:11:29;;;;;;;14.68;2.10;;;;;;;;;;5006443;28;20058;-86
2023/01/01 09:13:55;;;;;;;14.48;2.42;;;;;;;;;;4961784;28;20034;-82
2023/01/01 09:16:22;;;;;;;16.58;2.25;;;;;;;;;;4993142;28;20137;-81
2023/01/01 09:18:49;;;;;;;13.45;2.53;;;;;;;;;;4993350;28;20101;-80
2023/01/01 09:21:15;;;;;;;14.65;2.35;;;;;;;;;;4998292;28;20037;-82
2023/01/01 09:23:42;;;;;;;16.63;2.60;;;;;;;;;;5013172;28;20036;-80
2023/01/01 09:26:09;;;;;;;13.90;2.00;;;;;;;;;;4996732;28;20030;-79
2023/01/01 09:28:36;;;;;;;12.32;2.95;;;;;;;;;;4992982;28;20070;-80
2023/01/01 09:31:05;;;;;;;16.90;3.55;;;;;;;;;;5001113;28;20042;-79
2023/01/01 09:33:31;;;;;;;16.15;2.40;;;;;;;;;;4977757;28;20041;-86
2023/01/01 09:36:36;;;;;;;15.50;2.33;;;;;;;;;;4986291;28;20045;-80
2023/01/01 09:39:02;;;;;;;15.40;2.45;;;;;;;;;;4970248;28;20062;-79
2023/01/01 09:41:34;;;;;;;17.65;2.20;;;;;;;;;;4957223;28;20155;-82
2023/01/01 09:44:06;;;;;;;12.38;2.08;;;;;;;;;;4970185;28;20055;-79
2023/01/01 09:46:32;;;;;;;11.45;2.17;;;;;;;;;;4975171;28;20038;-78
2023/01/01 09:49:04;;;;;;;22.80;3.20;;;;;;;;;;4991032;28;20061;-81
2023/01/01 09:51:31;;;;;;;13.63;2.00;;;;;;;;;;4987414;28;20104;-81
2023/01/01 09:54:01;;;;;;;16.80;2.53;;;;;;;;;;5010919;28;20030;-81
2023/01/01 09:56:28;;;;;;;16.23;2.95;;;;;;;;;;5014384;28;20093;-82
2023/01/01 09:58:58;;;;;;;11.27;2.40;;;;;;;;;;5006968;28;20106;-82
2023/01/01 10:01:43;;;;;;;10.48;2.40;;;;;;;;;;4998620;28;20034;-81
2023/01/01 10:04:09;;;;;;;16.00;3.03;;;;;;;;;;5008983;28;20033;-81
2023/01/01 10:06:38;;;;;;;14.40;3.17;;;;;;;;;;5009492;28;20105;-83
2023/01/01 10:09:10;;;;;;;16.63;2.50;;;;;;;;;;5012702;28;20027;-79
2023/01/01 10:11:42;;;;;;;20.05;2.47;;;;;;;;;;5000018;28;20053;-83
2023/01/01 10:14:30;;;;;;;11.07;2.28;;;;;;;;;;5010466;28;20014;-83
2023/01/01 10:16:58;;;;;;;16.73;2.88;;;;;;;;;;5010983;28;20036;-84
2023/01/01 10:19:34;;;;;;;13.70;2.50;;;;;;;;;;4994418;28;20046;-83
2023/01/01 10:22:03;;;;;;;12.55;2.83;;;;;;;;;;4991634;28;20046;-82
2023/01/01 10:24:29;;;;;;;15.18;2.42;;;;;;;;;;4991299;28;20042;-82
2023/01/01 10:26:55;;;;;;;13.50;2.22;;;;;;;;;;5001376;28;20057;-83
2023/01/01 10:29:48;;;;;;;13.30;2.53;;;;;;;;;;5014552;28;20050;-81
2023/01/01 10:32:34;;;;;;;17.55;3.10;;;;;;;;;;5003453;28;20045;-81
2023/01/01 10:35:01;;;;;;;14.93;3.22;;;;;;;;;;5004485;28;20658;-81
2023/01/01 10:37:31;;;;;;;12.80;2.67;;;;;;;;;;5003467;28;20017;-82
2023/01/01 10:39:57;;;;;;;15.57;2.90;;;;;;;;;;4999201;28;20065;-80
2023/01/01 10:42:25;;;;;;;14.70;2.33;;;;;;;;;;5000045;28;20030;-81
2023/01/01 10:44:52;;;;;;;15.98;3.20;;;;;;;;;;5001413;28;20026;-85
2023/01/01 10:47:23;;;;;;;20.02;3.85;;;;;;;;;;4983953;28;20041;-80
2023/01/01 10:49:57;;;;;;;14.68;2.67;;;;;;;;;;4996320;28;20046;-83
2023/01/01 10:52:30;;;;;;;13.15;2.58;;;;;;;;;;4997270;28;20049;-81
2023/01/01 10:54:57;;;;;;;16.55;2.70;;;;;;;;;;4997028;28;20026;-82
2023/01/01 10:57:26;;;;;;;17.33;3.17;;;;;;;;;;4995317;28;20034;-81
2023/01/01 10:59:53;;;;;;;16.23;2.83;;;;;;;;;;4997694;28;20113;-79
2023/01/01 11:02:21;;;;;;;17.77;2.78;;;;;;;;;;4994748;28;20061;-83
2023/01/01 11:05:08;;;;;;;18.15;3.60;;;;;;;;;;4986109;28;20038;-78
2023/01/01 11:07:35;;;;;;;16.38;3.25;;;;;;;;;;4968262;28;20101;-82
2023/01/01 11:10:03;;;;;;;21.25;2.97;;;;;;;;;;4984360;28;20054;-77
2023/01/01 11:12:33;;;;;;;22.27;4.20;;;;;;;;;;4977439;28;20179;-79
2023/01/01 11:14:59;;;;;;;17.60;3.97;;;;;;;;;;4979896;28;20069;-80
2023/01/01 11:17:27;;;;;;;14.00;2.63;;;;;;;;;;4998742;28;20503;-83
2023/01/01 11:19:53;;;;;;;16.15;3.42;;;;;;;;;;4995440;28;20034;-78
2023/01/01 11:22:38;;;;;;;15.73;2.85;;;;;;;;;;4996407;28;20054;-79
2023/01/01 11:25:16;;;;;;;16.15;2.63;;;;;;;;;;4980570;28;20049;-83
2023/01/01 11:27:42;;;;;;;17.17;2.60;;;;;;;;;;5000302;28;20029;-80
2023/01/01 11:30:22;;;;;;;14.35;2.83;;;;;;;;;;4973826;28;20081;-79
2023/01/01 11:32:49;;;;;;;14.60;3.25;;;;;;;;;;4986899;28;20050;-84
2023/01/01 11:35:18;;;;;;;13.88;4.18;;;;;;;;;;4971701;28;20105;-78
2023/01/01 11:37:45;;;;;;;14.55;3.78;;;;;;;;;;4990707;28;20100;-78
2023/01/01 11:40:17;;;;;;;16.98;2.83;;;;;;;;;;4985966;28;20026;-79
2023/01/01 11:42:49;;;;;;;12.05;2.75;;;;;;;;;;4985518;28;20030;-78
2023/01/01 11:45:18;;;;;;;18.83;2.78;;;;;;;;;;4972409;28;20045;-77
2023/01/01 11:47:44;;;;;;;18.27;3.25;;;;;;;;;;4988463;28;20026;-78
2023/01/01 11:50:14;;;;;;;13.85;3.20;;;;;;;;;;4988349;28;20083;-79
2023/01/01 11:52:41;;;;;;;12.55;3.28;;;;;;;;;;4986870;28;20038;-78
2023/01/01 11:55:23;;;;;;;18.08;3.22;;;;;;;;;;4986164;28;20573;-78
2023/01/01 11:57:56;;;;;;;12.68;2.80;;;;;;;;;;4986152;28;20033;-78
2023/01/01 12:00:23;;;;;;;21.52;4.68;;;;;;;;;;4984348;28;20113;-78
2023/01/01 12:03:00;;;;;;;17.63;3.10;;;;;;;;;;4986474;28;20030;-80
2023/01/01 12:05:35;;;;;;;13.88;3.13;;;;;;;;;;4989659;28;20109;-81
2023/01/01 12:08:03;;;;;;;12.93;3.38;;;;;;;;;;4987662;28;20034;-81
2023/01/01 12:10:51;;;;;;;19.85;3.85;;;;;;;;;;4985628;28;20100;-79
2023/01/01 12:13:22;;;;;;;18.00;3.47;;;;;;;;;;4983750;28;20033;-78
2023/01/01 12:16:09;;;;;;;18.60;4.32;;;;;;;;;;4985645;28;20070;-80
2023/01/01 12:18:46;;;;;;;15.18;3.65;;;;;;;;;;4987188;28;20041;-80
2023/01/01 12:21:15;;;;;;;15.40;4.13;;;;;;;;;;4985863;28;20124;-78
2023/01/01 12:23:41;;;;;;;19.55;3.90;;;;;;;;;;4990708;28;20125;-82
2023/01/01 12:26:17;;;;;;;14.77;4.15;;;;;;;;;;4972327;28;20037;-80
2023/01/01 12:29:07;;;;;;;18.90;4.18;;;;;;;;;;4967801;28;20030;-85
2023/01/01 12:31:53;;;;;;;13.85;3.50;;;;;;;;;;4987757;28;20045;-82
2023/01/01 12:34:25;;;;;;;22.80;4.13;;;;;;;;;;4988928;28;20034;-85
2023/01/01 12:37:06;;;;;;;16.35;4.18;;;;;;;;;;4989500;28;20446;-85
2023/01/01 12:39:32;;;;;;;;;;;;;;;;;;4988426;28;20027;-90
2023/01/01 12:42:07;;;;;;;16.42;3.30;;;;;;;;;;5012271;28;19972;-87
2023/01/01 12:44:36;;;;;;;18.45;3.83;;;;;;;;;;4999125;28;20034;-82
2023/01/01 12:47:07;;;;;;;20.65;3.83;;;;;;;;;;4996924;28;20030;-83
2023/01/01 12:49:38;;;;;;;15.13;3.15;;;;;;;;;;4998324;28;20045;-84
2023/01/01 12:52:13;;;;;;;20.90;3.67;;;;;;;;;;4982067;28;20038;-84
2023/01/01 12:54:42;;;;;;;21.67;4.13;;;;;;;;;;4985750;28;20050;-85
2023/01/01 12:57:19;;;;;;;15.02;3.45;;;;;;;;;;4989011;28;20049;-83
2023/01/01 12:59:48;;;;;;;16.65;2.75;;;;;;;;;;4990242;28;20039;-88
2023/01/01 13:02:18;;;;;;;17.35;5.03;;;;;;;;;;4986705;28;20117;-83
2023/01/01 13:04:45;;;;;;;16.25;3.38;;;;;;;;;;4988285;28;20063;-87
2023/01/01 13:07:13;;;;;;;17.77;3.25;;;;;;;;;;4988206;28;20396;-79
2023/01/01 13:09:43;;;;;;;24.17;4.07;;;;;;;;;;4989823;28;20026;-79
2023/01/01 13:12:14;;;;;;;22.67;3.85;;;;;;;;;;4986422;28;20431;-78
2023/01/01 13:14:44;;;;;;;18.73;3.55;;;;;;;;;;4988558;28;20551;-79
2023/01/01 13:17:17;;;;;;;26.35;4.03;;;;;;;;;;4988840;28;20022;-79
2023/01/01 13:19:43;;;;;;;27.10;4.22;;;;;;;;;;4982875;28;20125;-79
2023/01/01 13:22:25;;;;;;;19.77;3.33;;;;;;;;;;4987487;28;20070;-78
2023/01/01 13:25:10;;;;;;;14.93;3.05;;;;;;;;;;4990178;28;20034;-79
2023/01/01 13:27:54;;;;;;;18.48;3.10;;;;;;;;;;4987119;28;20041;-79
2023/01/01 13:30:42;;;;;;;19.67;3.33;;;;;;;;;;5000850;28;20057;-79
2023/01/01 13:33:31;;;;;;;22.13;3.60;;;;;;;;;;4990522;28;20030;-79
2023/01/01 13:36:12;;;;;;;20.23;3.33;;;;;;;;;;4975748;28;20031;-79
2023/01/01 13:38:52;;;;;;;23.77;3.78;;;;;;;;;;4988487;28;20022;-78
2023/01/01 13:41:36;;;;;;;17.17;3.13;;;;;;;;;;4995909;28;20023;-78
2023/01/01 13:44:02;;;;;;;23.48;4.80;;;;;;;;;;4992726;28;20066;-79
2023/01/01 13:46:55;;;;;;;22.77;4.18;;;;;;;;;;4993015;28;20022;-79
2023/01/01 13:49:36;;;;;;;15.13;3.22;;;;;;;;;;4987000;28;20042;-78
2023/01/01 13:52:24;;;;;;;20.50;3.63;;;;;;;;;;4995686;28;20595;-79
2023/01/01 13:54:59;;;;;;;20.13;4.65;;;;;;;;;;4992095;28;20040;-77
2023/01/01 13:57:44;;;;;;;16.67;3.60;;;;;;;;;;4994083;28;20022;-78
2023/01/01 14:00:23;;;;;;;19.98;3.00;;;;;;;;;;4990739;28;20035;-79
2023/01/01 14:02:57;;;;;;;17.40;3.70;;;;;;;;;;4990633;28;20026;-77
2023/01/01 14:05:34;;;;;;;20.77;5.13;;;;;;;;;;4991642;28;20127;-79
2023/01/01 14:08:00;;;;;;;14.45;2.90;;;;;;;;;;4990702;28;20037;-79
2023/01/01 14:10:34;;;;;;;18.75;3.42;;;;;;;;;;4991638;28;20044;-78
2023/01/01 14:13:06;;;;;;;20.55;3.97;;;;;;;;;;4996793;28;20041;-78
2023/01/01 14:15:36;;;;;;;21.88;3.72;;;;;;;;;;4989070;28;20026;-78
2023/01/01 14:18:04;;;;;;;18.70;3.67;;;;;;;;;;4991803;28;21032;-83
2023/01/01 14:20:35;;;;;;;20.73;3.83;;;;;;;;;;4990004;28;20125;-78
2023/01/01 14:23:05;;;;;;;16.92;3.28;;;;;;;;;;4992381;28;20459;-78
2023/01/01 14:25:32;;;;;;;16.52;2.92;;;;;;;;;;4987294;28;20042;-80
2023/01/01 14:27:58;;;;;;;20.02;4.13;;;;;;;;;;4997465;28;20038;-83
2023/01/01 14:30:29;;;;;;;23.52;4.00;;;;;;;;;;4995018;28;20019;-85
2023/01/01 14:32:55;;;;;;;23.02;4.00;;;;;;;;;;4993870;28;20031;-81
2023/01/01 14:35:22;;;;;;;16.20;3.65;;;;;;;;;;4995113;28;20045;-82
2023/01/01 14:37:48;;;;;;;16.00;4.35;;;;;;;;;;4994887;28;20042;-80
2023/01/01 14:40:28;;;;;;;19.52;3.70;;;;;;;;;;4992484;28;20105;-81
2023/01/01 14:42:56;;;;;;;15.15;3.85;;;;;;;;;;4988019;28;20122;-78
2023/01/01 14:45:23;;;;;;;25.40;3.88;;;;;;;;;;4986200;28;21300;-82
2023/01/01 14:47:51;;;;;;;18.45;4.70;;;;;;;;;;4991209;28;20054;-82
2023/01/01 14:50:28;;;;;;;19.75;3.95;;;;;;;;;;4988205;28;20042;-81
2023/01/01 14:53:05;;;;;;;22.85;4.25;;;;;;;;;;5003090;28;20049;-80
2023/01/01 14:55:33;;;;;;;18.88;4.43;;;;;;;;;;4986488;28;20037;-80